Time;durP1;ratioP1;P1;durP2;ratioP2;P2;SDS_P1;SDS_P2;PMS_P1;PMS_P2;Temp;Humidity;BMP_temperature;BMP_pressure;BME280_temperature;BME280_humidity;BME280_pressure;Samples;Min_cycle;Max_cycle;Signal;HPM_P1;HPM_P2
2022/11/21 00:00:26;;;;;;;74.07;26.73;;;;;;;;;;5081981;28;20055;-77
2022/11/21 00:02:53;;;;;;;94.03;27.00;;;;;;;;;;5084348;28;20501;-76
2022/11/21 00:05:20;;;;;;;74.47;25.05;;;;;;;;;;5084479;28;20059;-77
2022/11/21 00:07:48;;;;;;;79.18;26.60;;;;;;;;;;5080159;28;20048;-77
2022/11/21 00:10:16;;;;;;;107.75;26.77;;;;;;;;;;5080366;28;20459;-77
2022/11/21 00:12:43;;;;;;;81.53;24.98;;;;;;;;;;5075317;28;20059;-77
2022/11/21 00:15:10;;;;;;;66.93;24.75;;;;;;;;;;5080888;28;20045;-76
2022/11/21 00:17:37;;;;;;;49.60;20.67;;;;;;;;;;5091066;28;20058;-77
2022/11/21 00:20:04;;;;;;;64.90;24.35;;;;;;;;;;5085737;28;20059;-77
2022/11/21 00:22:34;;;;;;;64.32;24.38;;;;;;;;;;5075991;28;20056;-77
2022/11/21 00:25:01;;;;;;;69.13;25.65;;;;;;;;;;5076522;28;20052;-76
2022/11/21 00:27:28;;;;;;;64.80;23.67;;;;;;;;;;5069662;28;20048;-77
2022/11/21 00:29:55;;;;;;;69.90;25.67;;;;;;;;;;5086191;28;20110;-77
2022/11/21 00:32:23;;;;;;;93.47;25.85;;;;;;;;;;5084819;28;20059;-77
2022/11/21 00:34:50;;;;;;;71.35;25.55;;;;;;;;;;5088779;28;20730;-76
2022/11/21 00:37:17;;;;;;;151.32;25.00;;;;;;;;;;5081087;28;20049;-76
2022/11/21 00:39:44;;;;;;;77.72;24.88;;;;;;;;;;5074787;28;20525;-76
2022/11/21 00:42:11;;;;;;;76.50;23.30;;;;;;;;;;5084684;28;20044;-77
2022/11/21 00:44:38;;;;;;;75.05;24.10;;;;;;;;;;5070596;28;20547;-77
2022/11/21 00:47:05;;;;;;;79.18;24.67;;;;;;;;;;5082569;28;20053;-76
2022/11/21 00:49:32;;;;;;;59.92;23.52;;;;;;;;;;5085701;28;20051;-77
2022/11/21 00:51:59;;;;;;;51.05;20.40;;;;;;;;;;5085692;28;20502;-76
2022/11/21 00:54:26;;;;;;;90.13;24.83;;;;;;;;;;5076581;28;20052;-76
2022/11/21 00:56:53;;;;;;;64.53;25.25;;;;;;;;;;5081467;28;20059;-76
2022/11/21 00:59:20;;;;;;;93.70;24.70;;;;;;;;;;5086706;28;20153;-76
2022/11/21 01:01:47;;;;;;;74.88;24.35;;;;;;;;;;5078403;28;20622;-76
2022/11/21 01:04:14;;;;;;;74.53;25.40;;;;;;;;;;5082230;28;20109;-77
2022/11/21 01:06:42;;;;;;;63.55;24.67;;;;;;;;;;5077701;28;20052;-77
2022/11/21 01:09:09;;;;;;;58.40;23.55;;;;;;;;;;5080566;28;20643;-77
2022/11/21 01:11:36;;;;;;;63.20;24.30;;;;;;;;;;5086912;28;20056;-76
2022/11/21 01:14:03;;;;;;;67.13;24.88;;;;;;;;;;5072114;28;20053;-77
2022/11/21 01:16:30;;;;;;;56.05;22.75;;;;;;;;;;5085214;28;20052;-77
2022/11/21 01:18:58;;;;;;;60.53;23.20;;;;;;;;;;5077819;28;20193;-76
2022/11/21 01:21:26;;;;;;;58.60;23.77;;;;;;;;;;5081192;28;20049;-76
2022/11/21 01:23:53;;;;;;;57.47;21.05;;;;;;;;;;5073817;28;20126;-77
2022/11/21 01:26:24;;;;;;;68.00;23.90;;;;;;;;;;5078261;28;20064;-76
2022/11/21 01:28:51;;;;;;;67.07;23.90;;;;;;;;;;5079844;28;20056;-76
2022/11/21 01:31:19;;;;;;;72.82;24.15;;;;;;;;;;5076307;28;20102;-76
2022/11/21 01:33:47;;;;;;;76.55;24.02;;;;;;;;;;5081516;28;20057;-76
2022/11/21 01:36:24;;;;;;;59.50;22.90;;;;;;;;;;5073717;28;20053;-76
2022/11/21 01:38:52;;;;;;;64.57;23.23;;;;;;;;;;5077957;28;20709;-76
2022/11/21 01:41:20;;;;;;;73.72;23.75;;;;;;;;;;5079954;28;20049;-76
2022/11/21 01:43:48;;;;;;;67.75;22.88;;;;;;;;;;5079336;28;20056;-76
2022/11/21 01:46:22;;;;;;;92.55;24.67;;;;;;;;;;5082379;28;20048;-76
2022/11/21 01:48:49;;;;;;;;;;;;;;;;;;5086282;28;20098;-76
2022/11/21 01:51:19;;;;;;;96.63;23.17;;;;;;;;;;5077849;28;43806;-76
2022/11/21 01:53:52;;;;;;;83.85;23.80;;;;;;;;;;5086761;28;20059;-76
2022/11/21 01:56:20;;;;;;;75.60;22.93;;;;;;;;;;5072004;28;20060;-76
2022/11/21 01:58:48;;;;;;;71.65;22.92;;;;;;;;;;5087660;28;20055;-76
2022/11/21 02:01:15;;;;;;;92.05;23.73;;;;;;;;;;5077092;28;20495;-76
2022/11/21 02:03:43;;;;;;;107.25;23.73;;;;;;;;;;5085224;28;20055;-76
2022/11/21 02:06:11;;;;;;;84.80;23.27;;;;;;;;;;5077429;28;20083;-77
2022/11/21 02:08:38;;;;;;;100.30;24.88;;;;;;;;;;5079292;28;20048;-76
2022/11/21 02:11:26;;;;;;;93.30;24.88;;;;;;;;;;5071688;28;20849;-76
2022/11/21 02:13:53;;;;;;;73.00;21.38;;;;;;;;;;5075371;28;20476;-76
2022/11/21 02:16:20;;;;;;;95.65;22.05;;;;;;;;;;5078820;28;20056;-76
2022/11/21 02:18:47;;;;;;;121.55;23.00;;;;;;;;;;5080984;28;20105;-76
2022/11/21 02:21:32;;;;;;;122.90;21.08;;;;;;;;;;5074583;28;20649;-76
2022/11/21 02:24:12;;;;;;;102.28;21.73;;;;;;;;;;5089303;28;20057;-76
2022/11/21 02:26:40;;;;;;;62.10;20.15;;;;;;;;;;5076651;28;20067;-76
2022/11/21 02:29:07;;;;;;;91.72;22.17;;;;;;;;;;5076692;28;20106;-76
2022/11/21 02:31:34;;;;;;;77.72;21.92;;;;;;;;;;5077768;28;20044;-76
2022/11/21 02:34:01;;;;;;;71.07;21.65;;;;;;;;;;5076320;28;20094;-76
2022/11/21 02:36:35;;;;;;;128.48;23.17;;;;;;;;;;5074739;28;20045;-76
2022/11/21 02:39:02;;;;;;;123.90;23.23;;;;;;;;;;5086055;28;20052;-76
2022/11/21 02:41:30;;;;;;;116.55;23.52;;;;;;;;;;5074848;28;20118;-76
2022/11/21 02:44:19;;;;;;;124.28;23.52;;;;;;;;;;5076000;28;20093;-76
2022/11/21 02:46:50;;;;;;;133.70;21.65;;;;;;;;;;5074205;28;20053;-76
2022/11/21 02:49:34;;;;;;;72.60;19.13;;;;;;;;;;5078518;28;20052;-76
2022/11/21 02:52:01;;;;;;;165.38;21.83;;;;;;;;;;5083095;28;20060;-76
2022/11/21 02:54:28;;;;;;;75.85;19.83;;;;;;;;;;5078395;28;20079;-77
2022/11/21 02:56:56;;;;;;;94.40;21.70;;;;;;;;;;5077075;28;20554;-76
2022/11/21 02:59:23;;;;;;;103.20;21.67;;;;;;;;;;5079537;28;20083;-76
2022/11/21 03:01:50;;;;;;;102.97;22.58;;;;;;;;;;5080382;28;20063;-76
2022/11/21 03:04:17;;;;;;;96.47;21.52;;;;;;;;;;5080676;28;20559;-76
2022/11/21 03:06:44;;;;;;;70.30;19.30;;;;;;;;;;5077002;28;20060;-76
2022/11/21 03:09:11;;;;;;;131.60;22.17;;;;;;;;;;5076265;28;20881;-76
2022/11/21 03:11:38;;;;;;;145.30;22.27;;;;;;;;;;5077229;28;20048;-76
2022/11/21 03:14:05;;;;;;;167.77;21.70;;;;;;;;;;5084458;28;20503;-76
2022/11/21 03:16:32;;;;;;;197.05;23.08;;;;;;;;;;5067826;28;20048;-76
2022/11/21 03:18:59;;;;;;;253.30;25.00;;;;;;;;;;5084133;28;20098;-76
2022/11/21 03:21:26;;;;;;;246.15;23.63;;;;;;;;;;5078022;28;20496;-76
2022/11/21 03:23:54;;;;;;;168.15;22.30;;;;;;;;;;5081810;28;20053;-76
2022/11/21 03:26:21;;;;;;;146.13;21.90;;;;;;;;;;5084067;28;20167;-76
2022/11/21 03:28:48;;;;;;;306.58;24.95;;;;;;;;;;5080946;28;20053;-76
2022/11/21 03:31:15;;;;;;;335.75;25.58;;;;;;;;;;5083845;28;20052;-76
2022/11/21 03:33:42;;;;;;;292.98;24.75;;;;;;;;;;5077353;28;20052;-76
2022/11/21 03:36:09;;;;;;;355.25;24.02;;;;;;;;;;5076066;28;20903;-76
2022/11/21 03:38:36;;;;;;;522.97;29.17;;;;;;;;;;5079851;28;20470;-76
2022/11/21 03:41:28;;;;;;;325.92;25.35;;;;;;;;;;5076816;28;20049;-76
2022/11/21 03:43:53;;;;;;;336.10;24.58;;;;;;;;;;5073945;28;20072;-76
2022/11/21 03:46:20;;;;;;;336.50;25.40;;;;;;;;;;5075863;28;20064;-76
2022/11/21 03:48:47;;;;;;;433.58;25.27;;;;;;;;;;5077617;28;20087;-76
2022/11/21 03:51:15;;;;;;;350.45;22.80;;;;;;;;;;5079221;28;20057;-76
2022/11/21 03:53:42;;;;;;;265.35;21.58;;;;;;;;;;5074205;28;20150;-76
2022/11/21 03:56:09;;;;;;;316.27;24.75;;;;;;;;;;5077207;28;20091;-76
2022/11/21 03:58:36;;;;;;;329.23;24.50;;;;;;;;;;5083682;28;20110;-76
2022/11/21 04:01:03;;;;;;;373.13;27.38;;;;;;;;;;5080747;28;20655;-76
2022/11/21 04:03:30;;;;;;;327.35;24.65;;;;;;;;;;5076776;28;20064;-76
2022/11/21 04:05:57;;;;;;;442.95;29.73;;;;;;;;;;5075885;28;20068;-76
2022/11/21 04:08:25;;;;;;;234.02;21.75;;;;;;;;;;5082025;28;20048;-76
2022/11/21 04:10:54;;;;;;;321.75;25.98;;;;;;;;;;5082011;28;20054;-76
2022/11/21 04:13:21;;;;;;;289.95;25.00;;;;;;;;;;5072900;28;20512;-76
2022/11/21 04:15:48;;;;;;;336.80;26.42;;;;;;;;;;5080422;28;20053;-76
2022/11/21 04:18:15;;;;;;;313.33;26.58;;;;;;;;;;5080014;28;20053;-77
2022/11/21 04:20:42;;;;;;;271.98;23.75;;;;;;;;;;5077652;28;20075;-76
2022/11/21 04:23:09;;;;;;;275.45;23.77;;;;;;;;;;5064966;28;20053;-77
2022/11/21 04:25:36;;;;;;;184.73;21.40;;;;;;;;;;5075863;28;20053;-76
2022/11/21 04:28:04;;;;;;;183.02;20.95;;;;;;;;;;5074058;28;20049;-76
2022/11/21 04:30:32;;;;;;;150.43;20.52;;;;;;;;;;5081172;28;20596;-77
2022/11/21 04:32:59;;;;;;;208.32;20.85;;;;;;;;;;5076026;28;20044;-76
2022/11/21 04:35:26;;;;;;;164.18;20.70;;;;;;;;;;5082462;28;21188;-76
2022/11/21 04:37:53;;;;;;;202.32;20.52;;;;;;;;;;5077415;28;20052;-76
2022/11/21 04:40:21;;;;;;;211.05;21.50;;;;;;;;;;5079388;28;20804;-76
2022/11/21 04:42:48;;;;;;;232.88;22.98;;;;;;;;;;5075244;28;20053;-76
2022/11/21 04:45:16;;;;;;;300.67;24.10;;;;;;;;;;5082628;28;20048;-76
2022/11/21 04:47:44;;;;;;;290.10;24.40;;;;;;;;;;5075220;28;20045;-76
2022/11/21 04:50:13;;;;;;;278.88;22.15;;;;;;;;;;5076523;28;20048;-76
2022/11/21 04:52:40;;;;;;;219.55;20.60;;;;;;;;;;5072666;28;20494;-76
2022/11/21 04:55:08;;;;;;;401.33;28.02;;;;;;;;;;5074358;28;20099;-76
2022/11/21 04:57:35;;;;;;;304.35;24.38;;;;;;;;;;5075008;28;20048;-76
2022/11/21 05:00:03;;;;;;;268.33;21.73;;;;;;;;;;5078151;28;20053;-76
2022/11/21 05:02:30;;;;;;;253.15;21.02;;;;;;;;;;5085049;28;20098;-76
2022/11/21 05:04:57;;;;;;;342.05;24.83;;;;;;;;;;5077001;28;20055;-76
2022/11/21 05:07:24;;;;;;;377.90;26.30;;;;;;;;;;5081160;28;20063;-76
2022/11/21 05:09:51;;;;;;;403.10;26.92;;;;;;;;;;5079507;28;20057;-76
2022/11/21 05:15:04;;;;;;;220.45;23.40;;;;;;;;;;5071607;28;20060;-76
2022/11/21 05:17:31;;;;;;;265.10;24.63;;;;;;;;;;5078915;28;20052;-76
2022/11/21 05:20:00;;;;;;;286.52;25.20;;;;;;;;;;5074806;28;20519;-76
2022/11/21 05:22:28;;;;;;;198.60;22.25;;;;;;;;;;5075970;28;20572;-76
2022/11/21 05:24:55;;;;;;;281.75;25.85;;;;;;;;;;5077403;28;20049;-76
2022/11/21 05:27:22;;;;;;;225.68;23.58;;;;;;;;;;5073371;28;20439;-76
2022/11/21 05:29:49;;;;;;;252.05;25.80;;;;;;;;;;5077683;28;20772;-76
2022/11/21 05:32:16;;;;;;;212.25;24.02;;;;;;;;;;5072575;28;20099;-76
2022/11/21 05:34:43;;;;;;;291.08;26.05;;;;;;;;;;5075405;28;20053;-77
2022/11/21 05:37:11;;;;;;;389.52;28.40;;;;;;;;;;5084887;28;20102;-76
2022/11/21 05:39:38;;;;;;;242.02;24.92;;;;;;;;;;5082906;28;20056;-76
2022/11/21 05:42:05;;;;;;;281.15;24.17;;;;;;;;;;5079934;28;20519;-77
2022/11/21 05:44:32;;;;;;;273.35;24.27;;;;;;;;;;5077805;28;20144;-76
2022/11/21 05:46:59;;;;;;;292.35;25.08;;;;;;;;;;5074211;28;20052;-76
2022/11/21 05:49:26;;;;;;;250.35;24.83;;;;;;;;;;5081475;28;20052;-76
2022/11/21 05:51:53;;;;;;;323.58;26.85;;;;;;;;;;5079198;28;20048;-77
2022/11/21 05:54:20;;;;;;;279.02;24.50;;;;;;;;;;5081055;28;20053;-76
2022/11/21 05:56:47;;;;;;;253.07;24.38;;;;;;;;;;5079640;28;20059;-76
2022/11/21 05:59:14;;;;;;;274.17;25.33;;;;;;;;;;5079407;28;20059;-77
2022/11/21 06:04:28;;;;;;;272.25;25.15;;;;;;;;;;5076465;28;20059;-76
2022/11/21 06:06:55;;;;;;;218.73;24.55;;;;;;;;;;5080410;28;20056;-77
2022/11/21 06:09:22;;;;;;;312.83;26.50;;;;;;;;;;5074457;28;20049;-76
2022/11/21 06:11:49;;;;;;;332.60;27.23;;;;;;;;;;5074800;28;20057;-76
2022/11/21 06:14:16;;;;;;;367.23;27.73;;;;;;;;;;5074415;28;20049;-76
2022/11/21 06:16:43;;;;;;;291.23;26.55;;;;;;;;;;5080084;28;20122;-76
2022/11/21 06:19:19;;;;;;;255.90;26.25;;;;;;;;;;5078430;28;21020;-76
2022/11/21 06:21:49;;;;;;;276.42;25.25;;;;;;;;;;5076106;28;20060;-77
2022/11/21 06:24:20;;;;;;;247.75;24.73;;;;;;;;;;5070676;28;20489;-76
2022/11/21 06:26:48;;;;;;;291.00;26.13;;;;;;;;;;5059191;28;20064;-76
2022/11/21 06:29:17;;;;;;;248.75;24.20;;;;;;;;;;5082286;28;20410;-76
2022/11/21 06:31:44;;;;;;;253.63;24.45;;;;;;;;;;5072603;28;20058;-77
2022/11/21 06:34:11;;;;;;;256.30;24.13;;;;;;;;;;5077289;28;20057;-77
2022/11/21 06:36:38;;;;;;;189.80;23.40;;;;;;;;;;5087539;28;20521;-76
2022/11/21 06:39:05;;;;;;;235.10;24.83;;;;;;;;;;5082657;28;20084;-77
2022/11/21 06:41:32;;;;;;;194.00;23.25;;;;;;;;;;5084056;28;20517;-77
2022/11/21 06:44:00;;;;;;;292.40;25.73;;;;;;;;;;5077061;28;20056;-76
2022/11/21 06:46:27;;;;;;;215.02;23.02;;;;;;;;;;5082513;28;20048;-77
2022/11/21 06:48:54;;;;;;;255.80;24.40;;;;;;;;;;5079206;28;20055;-77
2022/11/21 06:51:22;;;;;;;208.30;22.98;;;;;;;;;;5081906;28;20044;-76
2022/11/21 06:53:54;;;;;;;224.80;25.27;;;;;;;;;;5085613;28;20044;-76
2022/11/21 06:56:22;;;;;;;199.55;24.08;;;;;;;;;;5079746;28;20473;-76
2022/11/21 06:58:49;;;;;;;325.65;25.52;;;;;;;;;;5084684;28;20128;-76
2022/11/21 07:01:16;;;;;;;177.52;24.73;;;;;;;;;;5078155;28;20055;-76
2022/11/21 07:03:44;;;;;;;168.18;23.23;;;;;;;;;;5079964;28;20044;-76
2022/11/21 07:06:11;;;;;;;159.75;20.40;;;;;;;;;;5075320;28;20144;-76
2022/11/21 07:08:39;;;;;;;226.10;23.90;;;;;;;;;;5077573;28;20049;-76
2022/11/21 07:11:08;;;;;;;192.20;21.58;;;;;;;;;;5080665;28;20056;-76
2022/11/21 07:13:51;;;;;;;163.82;22.27;;;;;;;;;;5081871;28;20485;-76
2022/11/21 07:16:18;;;;;;;224.55;22.73;;;;;;;;;;5083418;28;20114;-76
2022/11/21 07:18:45;;;;;;;165.55;21.40;;;;;;;;;;5074119;28;20045;-77
2022/11/21 07:21:13;;;;;;;157.23;21.13;;;;;;;;;;5082542;28;20842;-77
2022/11/21 07:23:40;;;;;;;129.23;20.73;;;;;;;;;;5075089;28;20130;-77
2022/11/21 07:26:10;;;;;;;159.32;20.02;;;;;;;;;;5081645;28;20053;-77
2022/11/21 07:28:37;;;;;;;134.45;21.92;;;;;;;;;;5085296;28;20140;-77
2022/11/21 07:31:04;;;;;;;126.90;21.30;;;;;;;;;;5084115;28;20130;-77
2022/11/21 07:33:39;;;;;;;137.75;20.75;;;;;;;;;;5082306;28;20551;-77
2022/11/21 07:36:06;;;;;;;119.65;20.05;;;;;;;;;;5080206;28;20053;-77
2022/11/21 07:38:34;;;;;;;111.97;20.50;;;;;;;;;;5083120;28;21095;-77
2022/11/21 07:41:01;;;;;;;140.85;21.60;;;;;;;;;;5085099;28;20053;-77
2022/11/21 07:43:28;;;;;;;164.73;21.10;;;;;;;;;;5078807;28;20041;-77
2022/11/21 07:45:55;;;;;;;176.23;20.75;;;;;;;;;;5080528;28;20063;-77
2022/11/21 07:48:25;;;;;;;147.23;21.75;;;;;;;;;;5076535;28;20426;-77
2022/11/21 07:50:52;;;;;;;163.73;20.67;;;;;;;;;;5081846;28;20049;-77
2022/11/21 07:53:19;;;;;;;108.00;18.75;;;;;;;;;;5082415;28;20049;-77
2022/11/21 07:55:46;;;;;;;139.35;20.40;;;;;;;;;;5072146;28;20532;-77
2022/11/21 07:58:15;;;;;;;116.95;19.85;;;;;;;;;;5089482;28;20084;-77
2022/11/21 08:00:43;;;;;;;122.90;20.30;;;;;;;;;;5084020;28;20055;-77
2022/11/21 08:03:11;;;;;;;117.18;19.17;;;;;;;;;;5076741;28;20134;-77
2022/11/21 08:05:42;;;;;;;100.68;19.02;;;;;;;;;;5087684;28;20052;-77
2022/11/21 08:08:10;;;;;;;108.70;19.38;;;;;;;;;;5080268;28;20067;-77
2022/11/21 08:10:41;;;;;;;96.88;18.83;;;;;;;;;;5080940;28;20143;-77
2022/11/21 08:13:09;;;;;;;126.22;19.90;;;;;;;;;;5079841;28;20958;-77
2022/11/21 08:15:36;;;;;;;116.28;19.92;;;;;;;;;;5067608;28;20525;-77
2022/11/21 08:18:07;;;;;;;143.98;20.02;;;;;;;;;;5078344;28;20057;-77
2022/11/21 08:20:34;;;;;;;101.38;19.73;;;;;;;;;;5085147;28;20682;-77
2022/11/21 08:23:01;;;;;;;85.10;19.98;;;;;;;;;;5078123;28;20520;-77
2022/11/21 08:25:29;;;;;;;150.27;23.02;;;;;;;;;;5079988;28;20056;-77
2022/11/21 08:27:57;;;;;;;115.30;19.77;;;;;;;;;;5074614;28;20059;-77
2022/11/21 08:30:24;;;;;;;133.90;20.67;;;;;;;;;;5079386;28;20049;-77
2022/11/21 08:32:51;;;;;;;128.00;21.08;;;;;;;;;;5074695;28;20581;-77
2022/11/21 08:35:29;;;;;;;128.02;20.73;;;;;;;;;;5077012;28;20184;-77
2022/11/21 08:37:58;;;;;;;139.77;21.25;;;;;;;;;;5081233;28;20075;-77
2022/11/21 08:40:27;;;;;;;131.63;21.52;;;;;;;;;;5080788;28;20134;-77
2022/11/21 08:43:08;;;;;;;153.65;23.02;;;;;;;;;;5073046;28;20083;-77
2022/11/21 08:45:36;;;;;;;212.93;23.75;;;;;;;;;;5079569;28;20091;-77
2022/11/21 08:48:14;;;;;;;196.50;23.38;;;;;;;;;;5078359;28;20568;-77
2022/11/21 08:50:51;;;;;;;198.48;22.95;;;;;;;;;;5077977;28;20064;-77
2022/11/21 08:53:18;;;;;;;203.48;24.25;;;;;;;;;;5076403;28;20502;-77
2022/11/21 08:55:45;;;;;;;193.07;23.40;;;;;;;;;;5078130;28;20110;-77
2022/11/21 08:58:13;;;;;;;217.10;23.85;;;;;;;;;;5079977;28;20055;-77
2022/11/21 09:00:40;;;;;;;155.48;22.55;;;;;;;;;;5081188;28;20171;-77
2022/11/21 09:03:07;;;;;;;191.80;23.40;;;;;;;;;;5073275;28;20049;-76
2022/11/21 09:05:34;;;;;;;168.18;23.23;;;;;;;;;;5069260;28;20758;-76
2022/11/21 09:08:01;;;;;;;204.82;23.48;;;;;;;;;;5071652;28;20079;-77
2022/11/21 09:10:31;;;;;;;166.63;24.25;;;;;;;;;;5079262;28;20049;-76
2022/11/21 09:12:59;;;;;;;201.00;24.08;;;;;;;;;;5080683;28;20084;-76
2022/11/21 09:18:12;;;;;;;195.00;22.10;;;;;;;;;;5075014;28;20103;-76
2022/11/21 09:20:40;;;;;;;190.73;24.35;;;;;;;;;;5081900;28;20453;-76
2022/11/21 09:23:11;;;;;;;130.80;21.60;;;;;;;;;;5076389;28;20055;-76
2022/11/21 09:25:39;;;;;;;142.90;22.98;;;;;;;;;;5064964;28;20049;-76
2022/11/21 09:28:07;;;;;;;152.40;22.67;;;;;;;;;;5078548;28;20522;-76
2022/11/21 09:30:35;;;;;;;131.80;21.95;;;;;;;;;;5077816;28;20049;-76
2022/11/21 09:33:10;;;;;;;136.10;21.45;;;;;;;;;;5058176;28;20636;-76
2022/11/21 09:35:38;;;;;;;154.83;23.00;;;;;;;;;;5072783;28;20055;-76
2022/11/21 09:38:06;;;;;;;147.52;23.02;;;;;;;;;;5078891;28;20151;-76
2022/11/21 09:40:34;;;;;;;142.35;22.60;;;;;;;;;;5067103;28;20053;-76
2022/11/21 09:43:20;;;;;;;185.32;21.95;;;;;;;;;;5056469;28;20084;-76
2022/11/21 09:45:51;;;;;;;134.85;22.10;;;;;;;;;;5048353;28;20400;-76
2022/11/21 09:48:21;;;;;;;118.05;22.75;;;;;;;;;;5054418;28;20093;-76
2022/11/21 09:50:50;;;;;;;109.68;22.50;;;;;;;;;;5059112;28;20075;-76
2022/11/21 09:53:28;;;;;;;126.35;20.73;;;;;;;;;;5051988;28;20057;-76
2022/11/21 09:55:58;;;;;;;104.57;20.83;;;;;;;;;;5049430;28;20050;-76
2022/11/21 09:58:31;;;;;;;87.93;19.92;;;;;;;;;;5050734;28;20080;-76
2022/11/21 10:00:58;;;;;;;91.50;20.60;;;;;;;;;;5057647;28;20101;-76
2022/11/21 10:03:27;;;;;;;92.25;21.30;;;;;;;;;;5058326;28;20114;-76
2022/11/21 10:06:05;;;;;;;76.38;20.13;;;;;;;;;;5054741;28;20049;-76
2022/11/21 10:08:47;;;;;;;75.20;19.40;;;;;;;;;;5057969;28;20055;-76
2022/11/21 10:11:29;;;;;;;89.93;20.23;;;;;;;;;;5046479;28;20080;-76
2022/11/21 10:14:05;;;;;;;71.68;19.58;;;;;;;;;;5058973;28;20080;-76
2022/11/21 10:16:43;;;;;;;87.88;20.20;;;;;;;;;;5059099;28;20049;-76
2022/11/21 10:19:19;;;;;;;70.03;20.00;;;;;;;;;;5059977;28;20053;-76
2022/11/21 10:21:50;;;;;;;76.45;20.52;;;;;;;;;;5060878;28;20053;-76
2022/11/21 10:27:04;;;;;;;64.88;18.95;;;;;;;;;;5166476;22;20060;-79
2022/11/21 10:30:00;;;;;;;70.65;21.70;;;;;;;;;;5069207;28;20056;-79
2022/11/21 10:32:47;;;;;;;75.47;23.00;;;;;;;;;;5057015;28;20045;-79
2022/11/21 10:35:19;;;;;;;64.65;21.75;;;;;;;;;;5066836;28;20641;-78
2022/11/21 10:37:52;;;;;;;53.33;19.42;;;;;;;;;;5066626;28;21210;-78
2022/11/21 10:40:31;;;;;;;72.63;21.85;;;;;;;;;;5067696;28;20063;-78
2022/11/21 10:46:00;;;;;;;60.15;19.98;;;;;;;;;;5065905;28;20060;-78
2022/11/21 10:48:27;;;;;;;73.22;21.27;;;;;;;;;;5061451;28;20057;-78
2022/11/21 10:51:05;;;;;;;57.83;20.65;;;;;;;;;;5066495;28;20576;-78
2022/11/21 10:56:20;;;;;;;63.03;23.13;;;;;;;;;;5065041;28;20052;-78
2022/11/21 10:58:51;;;;;;;56.40;22.45;;;;;;;;;;5064189;28;20053;-78
2022/11/21 11:01:35;;;;;;;66.18;23.25;;;;;;;;;;5067680;28;20049;-79
2022/11/21 11:04:23;;;;;;;55.22;21.52;;;;;;;;;;5062468;28;20079;-78
2022/11/21 11:07:20;;;;;;;54.83;22.23;;;;;;;;;;5064379;28;20061;-78
2022/11/21 11:09:47;;;;;;;61.47;22.05;;;;;;;;;;5067363;28;20037;-78
2022/11/21 11:12:23;;;;;;;52.80;22.45;;;;;;;;;;5066759;28;20598;-79
2022/11/21 11:14:52;;;;;;;57.70;23.58;;;;;;;;;;5064487;28;20069;-78
2022/11/21 11:20:28;;;;;;;57.17;21.30;;;;;;;;;;5063429;28;20052;-78
2022/11/21 11:22:56;;;;;;;44.60;21.33;;;;;;;;;;5065443;28;20057;-78
2022/11/21 11:25:25;;;;;;;56.95;22.42;;;;;;;;;;5058253;28;20072;-78
2022/11/21 11:27:54;;;;;;;53.03;22.17;;;;;;;;;;5049683;28;20152;-78
2022/11/21 11:30:26;;;;;;;48.15;21.33;;;;;;;;;;5045229;28;20049;-78
2022/11/21 11:32:56;;;;;;;47.42;20.60;;;;;;;;;;5044427;28;20148;-78
2022/11/21 11:35:24;;;;;;;44.38;21.02;;;;;;;;;;5064716;28;20085;-78
2022/11/21 11:38:07;;;;;;;41.58;20.13;;;;;;;;;;5054100;28;20151;-78
2022/11/21 11:40:39;;;;;;;41.15;21.00;;;;;;;;;;5046448;28;20056;-78
2022/11/21 11:49:29;;;;;;;42.00;19.13;;;;;;;;;;5045413;28;20144;-78
2022/11/21 11:52:01;;;;;;;42.58;19.80;;;;;;;;;;5043504;28;20141;-79
2022/11/21 11:54:34;;;;;;;37.08;20.00;;;;;;;;;;5049126;28;20096;-78
2022/11/21 11:57:03;;;;;;;40.38;19.95;;;;;;;;;;5055100;28;20103;-78
2022/11/21 11:59:34;;;;;;;34.17;19.10;;;;;;;;;;5061025;28;20057;-78
2022/11/21 12:02:17;;;;;;;35.38;18.20;;;;;;;;;;5046979;28;20061;-78
2022/11/21 12:04:53;;;;;;;35.28;17.80;;;;;;;;;;5049627;28;20100;-78
2022/11/21 12:07:28;;;;;;;30.90;17.00;;;;;;;;;;5050861;28;20045;-77
2022/11/21 12:10:21;;;;;;;35.85;16.35;;;;;;;;;;5047364;28;20057;-78
2022/11/21 12:12:52;;;;;;;29.02;15.93;;;;;;;;;;5050366;28;20054;-78
2022/11/21 12:15:49;;;;;;;25.55;15.43;;;;;;;;;;5048224;28;20145;-78
2022/11/21 12:18:32;;;;;;;28.85;16.33;;;;;;;;;;5050736;28;20520;-79
2022/11/21 12:21:07;;;;;;;25.63;14.75;;;;;;;;;;5055771;28;20053;-78
2022/11/21 12:23:51;;;;;;;25.75;14.15;;;;;;;;;;5048523;28;20056;-79
2022/11/21 12:26:39;;;;;;;29.30;15.45;;;;;;;;;;5065270;28;20058;-78
2022/11/21 12:29:06;;;;;;;18.05;10.32;;;;;;;;;;5050672;28;20057;-78
2022/11/21 12:31:55;;;;;;;22.90;10.80;;;;;;;;;;5066600;28;20096;-78
2022/11/21 12:34:36;;;;;;;21.13;10.30;;;;;;;;;;5056911;28;20045;-79
2022/11/21 12:37:15;;;;;;;24.35;9.95;;;;;;;;;;5045602;28;20060;-78
2022/11/21 12:39:47;;;;;;;;;;;;;;;;;;5043809;28;20053;-79
2022/11/21 12:45:06;;;;;;;17.08;8.15;;;;;;;;;;5048213;28;20136;-79
2022/11/21 12:54:32;;;;;;;16.92;6.10;;;;;;;;;;5044706;28;20473;-78
2022/11/21 12:57:13;;;;;;;17.85;6.65;;;;;;;;;;5060983;28;20050;-78
2022/11/21 13:00:03;;;;;;;13.95;5.63;;;;;;;;;;5047918;28;20063;-78
2022/11/21 13:02:51;;;;;;;16.73;5.55;;;;;;;;;;5043208;28;20434;-79
2022/11/21 13:05:25;;;;;;;12.00;5.32;;;;;;;;;;5046159;28;20054;-79
2022/11/21 13:08:00;;;;;;;11.65;5.53;;;;;;;;;;5046712;28;20065;-78
2022/11/21 13:10:28;;;;;;;14.00;5.32;;;;;;;;;;5045982;28;20057;-78
2022/11/21 13:13:20;;;;;;;15.20;6.40;;;;;;;;;;5036734;28;20529;-78
2022/11/21 13:15:53;;;;;;;13.07;6.20;;;;;;;;;;5045449;28;20050;-78
2022/11/21 13:18:28;;;;;;;14.68;5.47;;;;;;;;;;5044572;28;20103;-79
2022/11/21 13:20:57;;;;;;;16.52;5.68;;;;;;;;;;5046174;28;20057;-79
2022/11/21 13:23:37;;;;;;;10.73;5.55;;;;;;;;;;5045568;28;20294;-78
2022/11/21 13:26:35;;;;;;;15.77;6.63;;;;;;;;;;5046398;28;20056;-79
2022/11/21 13:29:14;;;;;;;10.98;6.50;;;;;;;;;;5046120;28;20046;-78
2022/11/21 13:31:42;;;;;;;9.65;5.80;;;;;;;;;;5044867;28;20521;-79
2022/11/21 13:34:28;;;;;;;17.38;5.70;;;;;;;;;;5043250;28;20045;-78
2022/11/21 13:36:55;;;;;;;11.32;6.13;;;;;;;;;;5042903;28;20050;-79
2022/11/21 13:39:31;;;;;;;17.08;6.18;;;;;;;;;;5041059;28;20053;-77
2022/11/21 13:44:50;;;;;;;19.10;6.43;;;;;;;;;;5043115;28;20045;-78
2022/11/21 13:47:36;;;;;;;15.45;6.10;;;;;;;;;;5036001;28;20058;-78
2022/11/21 13:50:15;;;;;;;14.93;5.88;;;;;;;;;;5040898;28;20472;-78
2022/11/21 13:52:48;;;;;;;10.30;5.70;;;;;;;;;;5038626;28;20073;-77
2022/11/21 13:55:34;;;;;;;14.95;5.85;;;;;;;;;;5040607;28;20057;-78
2022/11/21 13:58:10;;;;;;;12.10;5.72;;;;;;;;;;5044523;28;20072;-78
2022/11/21 14:00:43;;;;;;;11.45;5.53;;;;;;;;;;5044897;28;20099;-78
2022/11/21 14:03:25;;;;;;;13.00;6.60;;;;;;;;;;5039290;28;20111;-79
2022/11/21 14:06:01;;;;;;;21.88;6.97;;;;;;;;;;5038644;28;20353;-78
2022/11/21 14:08:31;;;;;;;19.98;7.85;;;;;;;;;;5043388;28;20050;-78
2022/11/21 14:10:58;;;;;;;21.00;8.57;;;;;;;;;;5058182;28;20054;-78
2022/11/21 14:13:32;;;;;;;16.75;7.43;;;;;;;;;;5049469;28;20113;-78
2022/11/21 14:16:20;;;;;;;17.45;7.65;;;;;;;;;;5039792;28;20107;-78
2022/11/21 14:18:47;;;;;;;17.80;7.15;;;;;;;;;;5046938;28;20127;-78
2022/11/21 14:21:20;;;;;;;14.60;7.30;;;;;;;;;;5041963;28;20054;-78
2022/11/21 14:23:47;;;;;;;20.25;7.47;;;;;;;;;;5047593;28;20076;-78
2022/11/21 14:26:18;;;;;;;17.38;7.28;;;;;;;;;;5042129;28;20696;-78
2022/11/21 14:28:45;;;;;;;18.65;7.28;;;;;;;;;;5049965;28;20088;-79
2022/11/21 14:31:13;;;;;;;18.45;7.35;;;;;;;;;;5044569;28;20050;-78
2022/11/21 14:33:47;;;;;;;17.08;7.10;;;;;;;;;;5044076;28;20087;-78
2022/11/21 14:36:19;;;;;;;19.73;7.60;;;;;;;;;;5041139;28;20499;-79
2022/11/21 14:38:49;;;;;;;19.23;7.65;;;;;;;;;;5046854;28;20080;-78
2022/11/21 14:41:37;;;;;;;16.30;7.30;;;;;;;;;;5042166;28;20053;-78
2022/11/21 14:44:06;;;;;;;15.82;7.40;;;;;;;;;;5042886;28;20076;-78
2022/11/21 14:46:43;;;;;;;22.10;8.38;;;;;;;;;;5055974;28;20045;-79
2022/11/21 14:49:20;;;;;;;17.67;7.65;;;;;;;;;;5044780;28;20123;-78
2022/11/21 14:51:58;;;;;;;13.60;6.80;;;;;;;;;;5036529;28;20610;-78
2022/11/21 14:54:27;;;;;;;24.15;7.90;;;;;;;;;;5048237;28;20140;-78
2022/11/21 14:56:59;;;;;;;15.18;7.15;;;;;;;;;;5047335;28;20080;-77
2022/11/21 14:59:28;;;;;;;17.95;7.22;;;;;;;;;;5044979;28;20061;-77
2022/11/21 15:02:00;;;;;;;16.85;6.60;;;;;;;;;;5044241;28;20076;-79
2022/11/21 15:04:32;;;;;;;20.33;7.15;;;;;;;;;;5045596;28;20472;-78
2022/11/21 15:06:59;;;;;;;15.13;6.57;;;;;;;;;;5046836;28;20057;-78
2022/11/21 15:09:26;;;;;;;16.02;6.15;;;;;;;;;;5059893;28;20124;-78
2022/11/21 15:12:19;;;;;;;16.85;6.63;;;;;;;;;;5041070;28;20727;-78